sensor_id;sensor_type;location;lat;lon;timestamp;P1;durP1;ratioP1;P2;durP2;ratioP2
19747;SDS011;10032;51.386;12.516;2023-01-09T00:02:07;3.70;;;3.33;;
19747;SDS011;10032;51.386;12.516;2023-01-09T00:04:33;4.17;;;3.23;;
19747;SDS011;10032;51.386;12.516;2023-01-09T00:06:59;4.50;;;3.17;;
19747;SDS011;10032;51.386;12.516;2023-01-09T00:09:24;4.23;;;3.00;;
19747;SDS011;10032;51.386;12.516;2023-01-09T00:11:50;3.40;;;3.07;;
19747;SDS011;10032;51.386;12.516;2023-01-09T00:14:17;3.27;;;2.97;;
19747;SDS011;10032;51.386;12.516;2023-01-09T00:16:43;3.73;;;3.37;;
19747;SDS011;10032;51.386;12.516;2023-01-09T00:19:09;3.67;;;3.30;;
19747;SDS011;10032;51.386;12.516;2023-01-09T00:21:35;3.43;;;3.03;;
19747;SDS011;10032;51.386;12.516;2023-01-09T00:24:00;3.10;;;2.80;;
19747;SDS011;10032;51.386;12.516;2023-01-09T00:26:26;3.63;;;3.10;;
19747;SDS011;10032;51.386;12.516;2023-01-09T00:28:51;3.80;;;3.00;;
19747;SDS011;10032;51.386;12.516;2023-01-09T00:31:18;4.20;;;3.73;;
19747;SDS011;10032;51.386;12.516;2023-01-09T00:34:06;3.30;;;3.00;;
19747;SDS011;10032;51.386;12.516;2023-01-09T00:36:31;4.67;;;3.40;;
19747;SDS011;10032;51.386;12.516;2023-01-09T00:38:57;3.77;;;3.10;;
19747;SDS011;10032;51.386;12.516;2023-01-09T00:41:34;3.37;;;3.07;;
19747;SDS011;10032;51.386;12.516;2023-01-09T00:44:12;4.23;;;3.40;;
19747;SDS011;10032;51.386;12.516;2023-01-09T00:46:41;4.80;;;3.77;;
19747;SDS011;10032;51.386;12.516;2023-01-09T00:49:11;4.10;;;3.40;;
19747;SDS011;10032;51.386;12.516;2023-01-09T00:51:38;4.10;;;3.43;;
19747;SDS011;10032;51.386;12.516;2023-01-09T00:54:05;5.20;;;3.60;;
19747;SDS011;10032;51.386;12.516;2023-01-09T00:56:32;4.40;;;3.90;;
19747;SDS011;10032;51.386;12.516;2023-01-09T00:59:00;5.23;;;3.60;;
19747;SDS011;10032;51.386;12.516;2023-01-09T01:01:26;4.63;;;3.30;;
19747;SDS011;10032;51.386;12.516;2023-01-09T01:03:51;5.53;;;4.17;;
19747;SDS011;10032;51.386;12.516;2023-01-09T01:06:17;3.80;;;3.40;;
19747;SDS011;10032;51.386;12.516;2023-01-09T01:09:00;3.90;;;3.33;;
19747;SDS011;10032;51.386;12.516;2023-01-09T01:11:26;3.97;;;3.50;;
19747;SDS011;10032;51.386;12.516;2023-01-09T01:13:52;4.30;;;3.47;;
19747;SDS011;10032;51.386;12.516;2023-01-09T01:16:17;4.97;;;3.93;;
19747;SDS011;10032;51.386;12.516;2023-01-09T01:18:43;5.37;;;3.90;;
19747;SDS011;10032;51.386;12.516;2023-01-09T01:21:09;4.97;;;3.90;;
19747;SDS011;10032;51.386;12.516;2023-01-09T01:23:36;4.50;;;3.70;;
19747;SDS011;10032;51.386;12.516;2023-01-09T01:26:20;4.67;;;3.97;;
19747;SDS011;10032;51.386;12.516;2023-01-09T01:28:45;4.67;;;4.00;;
19747;SDS011;10032;51.386;12.516;2023-01-09T01:31:14;7.47;;;3.83;;
19747;SDS011;10032;51.386;12.516;2023-01-09T01:33:41;4.60;;;3.80;;
19747;SDS011;10032;51.386;12.516;2023-01-09T01:36:07;3.87;;;3.40;;
19747;SDS011;10032;51.386;12.516;2023-01-09T01:38:33;6.53;;;4.10;;
19747;SDS011;10032;51.386;12.516;2023-01-09T01:40:59;3.40;;;3.10;;
19747;SDS011;10032;51.386;12.516;2023-01-09T01:43:26;5.47;;;4.13;;
19747;SDS011;10032;51.386;12.516;2023-01-09T01:45:52;4.20;;;3.80;;
19747;SDS011;10032;51.386;12.516;2023-01-09T01:48:19;5.17;;;3.60;;
19747;SDS011;10032;51.386;12.516;2023-01-09T01:56:23;4.97;;;3.67;;
19747;SDS011;10032;51.386;12.516;2023-01-09T01:58:29;3.97;;;3.30;;
19747;SDS011;10032;51.386;12.516;2023-01-09T02:00:55;4.93;;;3.53;;
19747;SDS011;10032;51.386;12.516;2023-01-09T02:03:22;4.83;;;3.80;;
19747;SDS011;10032;51.386;12.516;2023-01-09T02:05:51;3.43;;;3.13;;
19747;SDS011;10032;51.386;12.516;2023-01-09T02:08:16;4.57;;;3.30;;
19747;SDS011;10032;51.386;12.516;2023-01-09T02:10:42;5.03;;;3.80;;
19747;SDS011;10032;51.386;12.516;2023-01-09T02:13:09;4.23;;;3.60;;
19747;SDS011;10032;51.386;12.516;2023-01-09T02:15:46;5.67;;;3.90;;
19747;SDS011;10032;51.386;12.516;2023-01-09T02:18:24;4.90;;;3.70;;
19747;SDS011;10032;51.386;12.516;2023-01-09T02:34:24;5.27;;;4.03;;
19747;SDS011;10032;51.386;12.516;2023-01-09T02:37:17;4.90;;;4.03;;
19747;SDS011;10032;51.386;12.516;2023-01-09T02:42:21;4.90;;;3.40;;
19747;SDS011;10032;51.386;12.516;2023-01-09T02:44:49;4.10;;;3.23;;
19747;SDS011;10032;51.386;12.516;2023-01-09T02:49:48;3.67;;;3.20;;
19747;SDS011;10032;51.386;12.516;2023-01-09T03:08:45;3.60;;;2.83;;
19747;SDS011;10032;51.386;12.516;2023-01-09T03:11:20;4.57;;;3.27;;
19747;SDS011;10032;51.386;12.516;2023-01-09T03:13:48;4.80;;;2.93;;
19747;SDS011;10032;51.386;12.516;2023-01-09T03:16:27;4.57;;;3.47;;
19747;SDS011;10032;51.386;12.516;2023-01-09T03:18:57;3.90;;;3.03;;
19747;SDS011;10032;51.386;12.516;2023-01-09T03:21:24;4.53;;;2.97;;
19747;SDS011;10032;51.386;12.516;2023-01-09T03:26:19;4.10;;;2.60;;
19747;SDS011;10032;51.386;12.516;2023-01-09T03:28:45;2.70;;;2.43;;
19747;SDS011;10032;51.386;12.516;2023-01-09T03:31:11;2.87;;;2.30;;
19747;SDS011;10032;51.386;12.516;2023-01-09T03:33:36;3.13;;;2.83;;
19747;SDS011;10032;51.386;12.516;2023-01-09T03:36:02;3.67;;;3.07;;
19747;SDS011;10032;51.386;12.516;2023-01-09T03:38:28;2.83;;;2.47;;
19747;SDS011;10032;51.386;12.516;2023-01-09T03:40:53;2.93;;;2.63;;
19747;SDS011;10032;51.386;12.516;2023-01-09T03:43:19;5.10;;;2.23;;
19747;SDS011;10032;51.386;12.516;2023-01-09T03:45:44;3.57;;;2.30;;
19747;SDS011;10032;51.386;12.516;2023-01-09T03:48:09;2.57;;;2.37;;
19747;SDS011;10032;51.386;12.516;2023-01-09T03:50:35;2.70;;;1.97;;
19747;SDS011;10032;51.386;12.516;2023-01-09T03:53:00;3.57;;;2.73;;
19747;SDS011;10032;51.386;12.516;2023-01-09T03:55:26;2.20;;;2.00;;
19747;SDS011;10032;51.386;12.516;2023-01-09T03:57:51;2.53;;;2.17;;
19747;SDS011;10032;51.386;12.516;2023-01-09T04:00:18;2.63;;;2.40;;
19747;SDS011;10032;51.386;12.516;2023-01-09T04:02:44;3.60;;;2.47;;
19747;SDS011;10032;51.386;12.516;2023-01-09T04:05:10;3.73;;;2.10;;
19747;SDS011;10032;51.386;12.516;2023-01-09T04:07:35;2.60;;;2.33;;
19747;SDS011;10032;51.386;12.516;2023-01-09T04:10:00;4.33;;;2.40;;
19747;SDS011;10032;51.386;12.516;2023-01-09T04:12:27;2.33;;;2.13;;
19747;SDS011;10032;51.386;12.516;2023-01-09T04:14:52;3.43;;;2.07;;
19747;SDS011;10032;51.386;12.516;2023-01-09T04:17:17;2.57;;;1.90;;
19747;SDS011;10032;51.386;12.516;2023-01-09T04:19:43;2.53;;;2.17;;
19747;SDS011;10032;51.386;12.516;2023-01-09T04:22:08;3.60;;;2.70;;
19747;SDS011;10032;51.386;12.516;2023-01-09T04:24:34;3.50;;;2.67;;
19747;SDS011;10032;51.386;12.516;2023-01-09T04:26:59;2.47;;;1.80;;
19747;SDS011;10032;51.386;12.516;2023-01-09T04:29:24;2.97;;;2.10;;
19747;SDS011;10032;51.386;12.516;2023-01-09T04:31:50;2.00;;;1.83;;
19747;SDS011;10032;51.386;12.516;2023-01-09T04:34:15;2.23;;;2.03;;
19747;SDS011;10032;51.386;12.516;2023-01-09T04:36:41;2.87;;;2.03;;
19747;SDS011;10032;51.386;12.516;2023-01-09T04:39:07;3.63;;;2.57;;
19747;SDS011;10032;51.386;12.516;2023-01-09T04:41:33;2.60;;;1.90;;
19747;SDS011;10032;51.386;12.516;2023-01-09T04:44:17;2.33;;;2.13;;
19747;SDS011;10032;51.386;12.516;2023-01-09T04:46:47;2.43;;;2.03;;
19747;SDS011;10032;51.386;12.516;2023-01-09T04:49:13;2.67;;;2.00;;
19747;SDS011;10032;51.386;12.516;2023-01-09T04:51:39;2.67;;;2.40;;
19747;SDS011;10032;51.386;12.516;2023-01-09T04:54:04;3.10;;;2.60;;
19747;SDS011;10032;51.386;12.516;2023-01-09T04:56:30;3.30;;;2.30;;
19747;SDS011;10032;51.386;12.516;2023-01-09T04:58:56;2.70;;;2.10;;
19747;SDS011;10032;51.386;12.516;2023-01-09T05:01:22;2.20;;;2.00;;
19747;SDS011;10032;51.386;12.516;2023-01-09T05:03:47;2.27;;;2.07;;
19747;SDS011;10032;51.386;12.516;2023-01-09T05:06:13;3.97;;;2.77;;
19747;SDS011;10032;51.386;12.516;2023-01-09T05:08:38;3.10;;;2.63;;
19747;SDS011;10032;51.386;12.516;2023-01-09T05:11:04;2.97;;;2.00;;
19747;SDS011;10032;51.386;12.516;2023-01-09T05:13:29;2.67;;;2.47;;
19747;SDS011;10032;51.386;12.516;2023-01-09T05:15:54;2.53;;;1.97;;
19747;SDS011;10032;51.386;12.516;2023-01-09T05:18:20;2.37;;;2.17;;
19747;SDS011;10032;51.386;12.516;2023-01-09T05:20:45;2.47;;;1.83;;
19747;SDS011;10032;51.386;12.516;2023-01-09T05:23:11;2.80;;;2.10;;
19747;SDS011;10032;51.386;12.516;2023-01-09T05:25:36;3.20;;;2.73;;
19747;SDS011;10032;51.386;12.516;2023-01-09T05:28:02;3.40;;;2.37;;
19747;SDS011;10032;51.386;12.516;2023-01-09T05:30:27;3.70;;;2.10;;
19747;SDS011;10032;51.386;12.516;2023-01-09T05:32:53;2.87;;;2.47;;
19747;SDS011;10032;51.386;12.516;2023-01-09T05:35:18;2.73;;;2.43;;
19747;SDS011;10032;51.386;12.516;2023-01-09T05:37:44;2.73;;;2.13;;
19747;SDS011;10032;51.386;12.516;2023-01-09T05:40:10;3.70;;;2.87;;
19747;SDS011;10032;51.386;12.516;2023-01-09T05:42:37;3.10;;;2.80;;
19747;SDS011;10032;51.386;12.516;2023-01-09T05:45:02;3.47;;;2.70;;
19747;SDS011;10032;51.386;12.516;2023-01-09T05:47:28;2.47;;;1.97;;
19747;SDS011;10032;51.386;12.516;2023-01-09T05:49:54;3.03;;;2.73;;
19747;SDS011;10032;51.386;12.516;2023-01-09T05:52:22;3.53;;;2.40;;
19747;SDS011;10032;51.386;12.516;2023-01-09T05:54:48;3.10;;;2.50;;
19747;SDS011;10032;51.386;12.516;2023-01-09T05:57:14;3.30;;;2.57;;
19747;SDS011;10032;51.386;12.516;2023-01-09T05:59:39;3.60;;;2.73;;
19747;SDS011;10032;51.386;12.516;2023-01-09T06:02:05;2.83;;;2.57;;
19747;SDS011;10032;51.386;12.516;2023-01-09T06:04:30;3.93;;;2.97;;
19747;SDS011;10032;51.386;12.516;2023-01-09T06:06:55;4.33;;;2.93;;
19747;SDS011;10032;51.386;12.516;2023-01-09T06:09:21;3.67;;;2.70;;
19747;SDS011;10032;51.386;12.516;2023-01-09T06:11:47;3.63;;;2.53;;
19747;SDS011;10032;51.386;12.516;2023-01-09T06:14:12;4.03;;;2.60;;
19747;SDS011;10032;51.386;12.516;2023-01-09T06:16:37;2.60;;;2.10;;
19747;SDS011;10032;51.386;12.516;2023-01-09T06:19:03;3.10;;;2.77;;
19747;SDS011;10032;51.386;12.516;2023-01-09T06:21:30;2.73;;;2.03;;
19747;SDS011;10032;51.386;12.516;2023-01-09T06:23:56;2.87;;;2.50;;
19747;SDS011;10032;51.386;12.516;2023-01-09T06:26:22;2.43;;;2.00;;
19747;SDS011;10032;51.386;12.516;2023-01-09T06:28:48;2.47;;;2.27;;
19747;SDS011;10032;51.386;12.516;2023-01-09T06:31:13;3.43;;;2.30;;
19747;SDS011;10032;51.386;12.516;2023-01-09T06:33:39;4.33;;;2.13;;
19747;SDS011;10032;51.386;12.516;2023-01-09T06:36:04;4.43;;;2.77;;
19747;SDS011;10032;51.386;12.516;2023-01-09T06:38:30;3.27;;;2.33;;
19747;SDS011;10032;51.386;12.516;2023-01-09T06:40:55;2.47;;;2.20;;
19747;SDS011;10032;51.386;12.516;2023-01-09T06:43:21;2.70;;;2.50;;
19747;SDS011;10032;51.386;12.516;2023-01-09T06:45:46;2.73;;;2.30;;
19747;SDS011;10032;51.386;12.516;2023-01-09T06:48:12;3.50;;;2.60;;
19747;SDS011;10032;51.386;12.516;2023-01-09T06:50:37;3.00;;;2.37;;
19747;SDS011;10032;51.386;12.516;2023-01-09T06:53:02;3.20;;;2.40;;
19747;SDS011;10032;51.386;12.516;2023-01-09T06:55:28;2.83;;;2.37;;
19747;SDS011;10032;51.386;12.516;2023-01-09T06:57:53;3.53;;;2.67;;
19747;SDS011;10032;51.386;12.516;2023-01-09T07:00:19;2.93;;;2.33;;
19747;SDS011;10032;51.386;12.516;2023-01-09T07:02:45;2.67;;;2.30;;
19747;SDS011;10032;51.386;12.516;2023-01-09T07:05:10;4.93;;;2.27;;
19747;SDS011;10032;51.386;12.516;2023-01-09T07:07:37;4.73;;;2.87;;
19747;SDS011;10032;51.386;12.516;2023-01-09T07:10:03;3.43;;;2.70;;
19747;SDS011;10032;51.386;12.516;2023-01-09T07:12:29;3.13;;;2.50;;
19747;SDS011;10032;51.386;12.516;2023-01-09T07:14:55;3.23;;;2.80;;
19747;SDS011;10032;51.386;12.516;2023-01-09T07:17:20;3.80;;;3.00;;
19747;SDS011;10032;51.386;12.516;2023-01-09T07:19:45;3.40;;;2.83;;
19747;SDS011;10032;51.386;12.516;2023-01-09T07:22:11;3.83;;;3.17;;
19747;SDS011;10032;51.386;12.516;2023-01-09T07:24:36;4.53;;;3.30;;
19747;SDS011;10032;51.386;12.516;2023-01-09T07:27:02;4.00;;;2.70;;
19747;SDS011;10032;51.386;12.516;2023-01-09T07:29:28;3.40;;;2.43;;
19747;SDS011;10032;51.386;12.516;2023-01-09T07:31:53;2.90;;;2.70;;
19747;SDS011;10032;51.386;12.516;2023-01-09T07:34:19;3.50;;;2.97;;
19747;SDS011;10032;51.386;12.516;2023-01-09T07:36:45;3.80;;;2.87;;
19747;SDS011;10032;51.386;12.516;2023-01-09T07:39:11;3.27;;;2.83;;
19747;SDS011;10032;51.386;12.516;2023-01-09T07:41:37;3.33;;;2.67;;
19747;SDS011;10032;51.386;12.516;2023-01-09T07:44:03;4.20;;;3.03;;
19747;SDS011;10032;51.386;12.516;2023-01-09T07:46:29;2.90;;;2.60;;
19747;SDS011;10032;51.386;12.516;2023-01-09T07:48:54;3.20;;;2.60;;
19747;SDS011;10032;51.386;12.516;2023-01-09T07:51:20;2.73;;;2.40;;
19747;SDS011;10032;51.386;12.516;2023-01-09T07:53:45;3.87;;;2.37;;
19747;SDS011;10032;51.386;12.516;2023-01-09T07:56:10;3.00;;;2.23;;
19747;SDS011;10032;51.386;12.516;2023-01-09T07:58:36;3.47;;;2.53;;
19747;SDS011;10032;51.386;12.516;2023-01-09T08:01:02;2.20;;;2.00;;
19747;SDS011;10032;51.386;12.516;2023-01-09T08:03:28;3.33;;;2.57;;
19747;SDS011;10032;51.386;12.516;2023-01-09T08:05:54;2.60;;;2.30;;
19747;SDS011;10032;51.386;12.516;2023-01-09T08:08:19;2.83;;;2.20;;
19747;SDS011;10032;51.386;12.516;2023-01-09T08:10:45;3.53;;;2.50;;
19747;SDS011;10032;51.386;12.516;2023-01-09T08:13:10;3.30;;;2.10;;
19747;SDS011;10032;51.386;12.516;2023-01-09T08:15:35;2.30;;;2.10;;
19747;SDS011;10032;51.386;12.516;2023-01-09T08:18:01;2.23;;;2.10;;
19747;SDS011;10032;51.386;12.516;2023-01-09T08:20:27;2.63;;;2.33;;
19747;SDS011;10032;51.386;12.516;2023-01-09T08:22:52;2.20;;;2.00;;
19747;SDS011;10032;51.386;12.516;2023-01-09T08:25:19;2.30;;;2.10;;
19747;SDS011;10032;51.386;12.516;2023-01-09T08:27:44;2.57;;;2.37;;
19747;SDS011;10032;51.386;12.516;2023-01-09T08:30:10;1.87;;;1.70;;
19747;SDS011;10032;51.386;12.516;2023-01-09T08:32:36;2.37;;;1.87;;
19747;SDS011;10032;51.386;12.516;2023-01-09T08:35:02;2.00;;;1.63;;
19747;SDS011;10032;51.386;12.516;2023-01-09T08:37:28;1.83;;;1.67;;
19747;SDS011;10032;51.386;12.516;2023-01-09T08:39:53;4.33;;;2.20;;
19747;SDS011;10032;51.386;12.516;2023-01-09T08:42:20;1.60;;;1.50;;
19747;SDS011;10032;51.386;12.516;2023-01-09T08:45:04;1.43;;;1.33;;
19747;SDS011;10032;51.386;12.516;2023-01-09T08:47:49;1.77;;;1.63;;
19747;SDS011;10032;51.386;12.516;2023-01-09T08:50:14;1.67;;;1.43;;
19747;SDS011;10032;51.386;12.516;2023-01-09T08:52:40;1.40;;;1.30;;
19747;SDS011;10032;51.386;12.516;2023-01-09T08:55:06;1.50;;;1.20;;
19747;SDS011;10032;51.386;12.516;2023-01-09T08:57:32;1.53;;;1.43;;
19747;SDS011;10032;51.386;12.516;2023-01-09T08:59:57;1.40;;;1.30;;
19747;SDS011;10032;51.386;12.516;2023-01-09T09:02:23;1.30;;;1.20;;
19747;SDS011;10032;51.386;12.516;2023-01-09T09:04:48;1.60;;;0.87;;
19747;SDS011;10032;51.386;12.516;2023-01-09T09:07:17;1.90;;;1.53;;
19747;SDS011;10032;51.386;12.516;2023-01-09T09:09:50;1.57;;;1.30;;
19747;SDS011;10032;51.386;12.516;2023-01-09T09:12:18;1.20;;;1.10;;
19747;SDS011;10032;51.386;12.516;2023-01-09T09:14:44;1.20;;;1.10;;
19747;SDS011;10032;51.386;12.516;2023-01-09T09:17:28;1.10;;;1.00;;
19747;SDS011;10032;51.386;12.516;2023-01-09T09:19:53;1.27;;;1.17;;
19747;SDS011;10032;51.386;12.516;2023-01-09T09:22:18;0.93;;;0.90;;
19747;SDS011;10032;51.386;12.516;2023-01-09T09:24:44;1.23;;;1.07;;
19747;SDS011;10032;51.386;12.516;2023-01-09T09:27:09;1.13;;;1.10;;
19747;SDS011;10032;51.386;12.516;2023-01-09T09:29:35;1.90;;;1.00;;
19747;SDS011;10032;51.386;12.516;2023-01-09T09:32:00;2.30;;;1.17;;
19747;SDS011;10032;51.386;12.516;2023-01-09T09:34:25;1.10;;;1.03;;
19747;SDS011;10032;51.386;12.516;2023-01-09T09:36:51;1.37;;;1.27;;
19747;SDS011;10032;51.386;12.516;2023-01-09T09:39:17;1.03;;;0.90;;
19747;SDS011;10032;51.386;12.516;2023-01-09T09:44:58;1.00;;;0.90;;
19747;SDS011;10032;51.386;12.516;2023-01-09T09:47:45;1.10;;;1.00;;
19747;SDS011;10032;51.386;12.516;2023-01-09T09:55:42;1.50;;;1.30;;
19747;SDS011;10032;51.386;12.516;2023-01-09T10:00:46;2.73;;;1.43;;
19747;SDS011;10032;51.386;12.516;2023-01-09T10:03:32;0.80;;;0.80;;
19747;SDS011;10032;51.386;12.516;2023-01-09T10:12:00;0.50;;;0.50;;
19747;SDS011;10032;51.386;12.516;2023-01-09T10:14:36;0.53;;;0.40;;
19747;SDS011;10032;51.386;12.516;2023-01-09T10:22:23;2.03;;;0.67;;
19747;SDS011;10032;51.386;12.516;2023-01-09T10:27:59;0.77;;;0.53;;
19747;SDS011;10032;51.386;12.516;2023-01-09T10:33:09;1.63;;;0.80;;
19747;SDS011;10032;51.386;12.516;2023-01-09T10:38:22;0.47;;;0.47;;
19747;SDS011;10032;51.386;12.516;2023-01-09T10:40:59;0.40;;;0.40;;
19747;SDS011;10032;51.386;12.516;2023-01-09T10:43:37;0.57;;;0.40;;
19747;SDS011;10032;51.386;12.516;2023-01-09T10:46:11;0.30;;;0.30;;
19747;SDS011;10032;51.386;12.516;2023-01-09T10:48:50;0.40;;;0.40;;
19747;SDS011;10032;51.386;12.516;2023-01-09T10:54:27;0.63;;;0.43;;
19747;SDS011;10032;51.386;12.516;2023-01-09T10:56:54;0.50;;;0.40;;
19747;SDS011;10032;51.386;12.516;2023-01-09T10:59:36;0.87;;;0.40;;
19747;SDS011;10032;51.386;12.516;2023-01-09T11:02:01;7.57;;;2.60;;
19747;SDS011;10032;51.386;12.516;2023-01-09T11:06:59;0.40;;;0.40;;
19747;SDS011;10032;51.386;12.516;2023-01-09T11:10:04;0.77;;;0.57;;
19747;SDS011;10032;51.386;12.516;2023-01-09T11:12:34;0.70;;;0.60;;
19747;SDS011;10032;51.386;12.516;2023-01-09T11:17:52;2.03;;;0.60;;
19747;SDS011;10032;51.386;12.516;2023-01-09T11:22:47;2.47;;;0.70;;
19747;SDS011;10032;51.386;12.516;2023-01-09T11:25:19;0.80;;;0.60;;
19747;SDS011;10032;51.386;12.516;2023-01-09T11:30:50;2.60;;;0.80;;
19747;SDS011;10032;51.386;12.516;2023-01-09T11:33:22;0.63;;;0.40;;
19747;SDS011;10032;51.386;12.516;2023-01-09T11:35:57;0.60;;;0.60;;
19747;SDS011;10032;51.386;12.516;2023-01-09T11:38:23;0.47;;;0.30;;
19747;SDS011;10032;51.386;12.516;2023-01-09T11:40:58;1.10;;;0.67;;
19747;SDS011;10032;51.386;12.516;2023-01-09T11:43:38;0.67;;;0.60;;
19747;SDS011;10032;51.386;12.516;2023-01-09T11:46:05;1.13;;;0.50;;
19747;SDS011;10032;51.386;12.516;2023-01-09T11:49:18;3.07;;;0.90;;
19747;SDS011;10032;51.386;12.516;2023-01-09T11:51:26;1.40;;;0.40;;
19747;SDS011;10032;51.386;12.516;2023-01-09T11:56:27;0.50;;;0.50;;
19747;SDS011;10032;51.386;12.516;2023-01-09T11:58:53;0.60;;;0.60;;
19747;SDS011;10032;51.386;12.516;2023-01-09T12:06:43;0.50;;;0.50;;
19747;SDS011;10032;51.386;12.516;2023-01-09T12:09:17;2.00;;;0.50;;
19747;SDS011;10032;51.386;12.516;2023-01-09T12:11:56;1.60;;;1.23;;
19747;SDS011;10032;51.386;12.516;2023-01-09T12:22:30;2.00;;;0.80;;
19747;SDS011;10032;51.386;12.516;2023-01-09T12:25:16;1.40;;;0.87;;
19747;SDS011;10032;51.386;12.516;2023-01-09T12:30:33;19.97;;;1.10;;
19747;SDS011;10032;51.386;12.516;2023-01-09T12:33:21;0.67;;;0.60;;
19747;SDS011;10032;51.386;12.516;2023-01-09T12:38:27;0.57;;;0.57;;
19747;SDS011;10032;51.386;12.516;2023-01-09T12:41:24;1.10;;;0.50;;
19747;SDS011;10032;51.386;12.516;2023-01-09T12:46:57;0.67;;;0.60;;
19747;SDS011;10032;51.386;12.516;2023-01-09T12:52:07;1.97;;;1.87;;
19747;SDS011;10032;51.386;12.516;2023-01-09T12:57:34;1.70;;;1.03;;
19747;SDS011;10032;51.386;12.516;2023-01-09T13:05:51;1.00;;;1.00;;
19747;SDS011;10032;51.386;12.516;2023-01-09T13:10:55;1.43;;;0.70;;
19747;SDS011;10032;51.386;12.516;2023-01-09T13:13:26;0.90;;;0.80;;
19747;SDS011;10032;51.386;12.516;2023-01-09T13:15:59;0.80;;;0.80;;
19747;SDS011;10032;51.386;12.516;2023-01-09T13:18:32;1.07;;;1.00;;
19747;SDS011;10032;51.386;12.516;2023-01-09T13:21:06;1.50;;;1.10;;
19747;SDS011;10032;51.386;12.516;2023-01-09T13:29:05;1.53;;;1.37;;
19747;SDS011;10032;51.386;12.516;2023-01-09T13:34:36;0.60;;;0.60;;
19747;SDS011;10032;51.386;12.516;2023-01-09T13:37:02;2.00;;;0.40;;
19747;SDS011;10032;51.386;12.516;2023-01-09T13:39:29;0.20;;;0.20;;
19747;SDS011;10032;51.386;12.516;2023-01-09T13:42:01;2.13;;;0.93;;
19747;SDS011;10032;51.386;12.516;2023-01-09T13:44:47;0.50;;;0.50;;
19747;SDS011;10032;51.386;12.516;2023-01-09T13:59:42;0.77;;;0.77;;
19747;SDS011;10032;51.386;12.516;2023-01-09T14:07:36;0.60;;;0.60;;
19747;SDS011;10032;51.386;12.516;2023-01-09T14:10:19;0.73;;;0.73;;
19747;SDS011;10032;51.386;12.516;2023-01-09T14:12:51;1.30;;;1.20;;
19747;SDS011;10032;51.386;12.516;2023-01-09T14:15:22;10.00;;;5.27;;
19747;SDS011;10032;51.386;12.516;2023-01-09T14:18:15;4.77;;;2.77;;
19747;SDS011;10032;51.386;12.516;2023-01-09T14:20:52;1.10;;;0.87;;
19747;SDS011;10032;51.386;12.516;2023-01-09T14:25:51;7.00;;;4.17;;
19747;SDS011;10032;51.386;12.516;2023-01-09T14:28:25;3.13;;;1.93;;
19747;SDS011;10032;51.386;12.516;2023-01-09T14:35:44;6.67;;;3.90;;
19747;SDS011;10032;51.386;12.516;2023-01-09T14:40:37;4.03;;;2.37;;
19747;SDS011;10032;51.386;12.516;2023-01-09T14:43:13;2.47;;;1.80;;
19747;SDS011;10032;51.386;12.516;2023-01-09T14:45:45;2.37;;;2.17;;
19747;SDS011;10032;51.386;12.516;2023-01-09T14:48:13;1.90;;;1.80;;
19747;SDS011;10032;51.386;12.516;2023-01-09T14:50:47;2.80;;;2.30;;
19747;SDS011;10032;51.386;12.516;2023-01-09T14:53:21;1.70;;;1.50;;
19747;SDS011;10032;51.386;12.516;2023-01-09T14:55:53;1.70;;;1.60;;
19747;SDS011;10032;51.386;12.516;2023-01-09T14:58:24;2.50;;;2.00;;
19747;SDS011;10032;51.386;12.516;2023-01-09T15:03:33;1.50;;;1.40;;
19747;SDS011;10032;51.386;12.516;2023-01-09T15:06:24;1.17;;;1.17;;
19747;SDS011;10032;51.386;12.516;2023-01-09T15:08:54;0.90;;;0.90;;
19747;SDS011;10032;51.386;12.516;2023-01-09T15:11:23;1.03;;;0.93;;
19747;SDS011;10032;51.386;12.516;2023-01-09T15:13:49;0.80;;;0.80;;
19747;SDS011;10032;51.386;12.516;2023-01-09T15:16:18;0.70;;;0.70;;
19747;SDS011;10032;51.386;12.516;2023-01-09T15:18:46;2.03;;;1.77;;
19747;SDS011;10032;51.386;12.516;2023-01-09T15:21:18;16.03;;;7.60;;
19747;SDS011;10032;51.386;12.516;2023-01-09T15:23:48;5.77;;;4.33;;
19747;SDS011;10032;51.386;12.516;2023-01-09T15:26:24;4.27;;;2.70;;
19747;SDS011;10032;51.386;12.516;2023-01-09T15:28:52;3.80;;;3.40;;
19747;SDS011;10032;51.386;12.516;2023-01-09T15:31:24;3.33;;;1.90;;
19747;SDS011;10032;51.386;12.516;2023-01-09T15:33:49;6.97;;;4.53;;
19747;SDS011;10032;51.386;12.516;2023-01-09T15:36:20;3.40;;;2.40;;
19747;SDS011;10032;51.386;12.516;2023-01-09T15:38:48;2.13;;;1.87;;
19747;SDS011;10032;51.386;12.516;2023-01-09T15:41:16;2.07;;;1.50;;
19747;SDS011;10032;51.386;12.516;2023-01-09T15:44:19;4.50;;;2.90;;
19747;SDS011;10032;51.386;12.516;2023-01-09T15:46:47;1.47;;;1.37;;
19747;SDS011;10032;51.386;12.516;2023-01-09T15:49:14;3.27;;;2.20;;
19747;SDS011;10032;51.386;12.516;2023-01-09T15:51:42;4.67;;;3.00;;
19747;SDS011;10032;51.386;12.516;2023-01-09T15:54:30;7.83;;;3.97;;
19747;SDS011;10032;51.386;12.516;2023-01-09T15:59:49;20.00;;;8.13;;
19747;SDS011;10032;51.386;12.516;2023-01-09T16:02:14;7.80;;;4.30;;
19747;SDS011;10032;51.386;12.516;2023-01-09T16:05:04;4.33;;;3.10;;
19747;SDS011;10032;51.386;12.516;2023-01-09T16:07:33;4.00;;;2.53;;
19747;SDS011;10032;51.386;12.516;2023-01-09T16:09:59;2.37;;;1.70;;
19747;SDS011;10032;51.386;12.516;2023-01-09T16:12:25;1.80;;;1.43;;
19747;SDS011;10032;51.386;12.516;2023-01-09T16:14:56;3.00;;;2.30;;
19747;SDS011;10032;51.386;12.516;2023-01-09T16:17:23;3.27;;;1.63;;
19747;SDS011;10032;51.386;12.516;2023-01-09T16:19:57;5.00;;;3.70;;
19747;SDS011;10032;51.386;12.516;2023-01-09T16:22:36;4.63;;;3.70;;
19747;SDS011;10032;51.386;12.516;2023-01-09T16:25:34;10.43;;;5.30;;
19747;SDS011;10032;51.386;12.516;2023-01-09T16:30:52;9.43;;;5.13;;
19747;SDS011;10032;51.386;12.516;2023-01-09T16:33:31;7.53;;;4.10;;
19747;SDS011;10032;51.386;12.516;2023-01-09T16:35:57;5.80;;;3.83;;
19747;SDS011;10032;51.386;12.516;2023-01-09T16:38:23;2.90;;;2.20;;
19747;SDS011;10032;51.386;12.516;2023-01-09T16:43:44;1.77;;;1.27;;
19747;SDS011;10032;51.386;12.516;2023-01-09T16:46:10;1.53;;;1.30;;
19747;SDS011;10032;51.386;12.516;2023-01-09T16:48:37;1.87;;;1.50;;
19747;SDS011;10032;51.386;12.516;2023-01-09T16:51:03;2.27;;;1.43;;
19747;SDS011;10032;51.386;12.516;2023-01-09T16:53:29;1.43;;;1.33;;
19747;SDS011;10032;51.386;12.516;2023-01-09T16:55:56;6.10;;;2.87;;
19747;SDS011;10032;51.386;12.516;2023-01-09T16:58:29;1.30;;;1.20;;
19747;SDS011;10032;51.386;12.516;2023-01-09T17:00:56;3.23;;;2.03;;
19747;SDS011;10032;51.386;12.516;2023-01-09T17:03:22;1.73;;;1.63;;
19747;SDS011;10032;51.386;12.516;2023-01-09T17:05:52;2.50;;;1.37;;
19747;SDS011;10032;51.386;12.516;2023-01-09T17:10:50;11.83;;;2.50;;
19747;SDS011;10032;51.386;12.516;2023-01-09T17:13:17;3.73;;;1.80;;
19747;SDS011;10032;51.386;12.516;2023-01-09T17:15:43;2.40;;;1.57;;
19747;SDS011;10032;51.386;12.516;2023-01-09T17:18:19;2.10;;;1.90;;
19747;SDS011;10032;51.386;12.516;2023-01-09T17:20:48;2.57;;;2.00;;
19747;SDS011;10032;51.386;12.516;2023-01-09T17:23:15;2.73;;;1.90;;
19747;SDS011;10032;51.386;12.516;2023-01-09T17:25:42;2.33;;;1.80;;
19747;SDS011;10032;51.386;12.516;2023-01-09T17:28:26;4.07;;;2.53;;
19747;SDS011;10032;51.386;12.516;2023-01-09T17:30:57;2.70;;;1.93;;
19747;SDS011;10032;51.386;12.516;2023-01-09T17:33:27;3.10;;;2.23;;
19747;SDS011;10032;51.386;12.516;2023-01-09T17:35:53;2.60;;;2.00;;
19747;SDS011;10032;51.386;12.516;2023-01-09T17:38:19;2.37;;;2.10;;
19747;SDS011;10032;51.386;12.516;2023-01-09T17:40:45;2.43;;;1.80;;